LROP/OTP METAR and TAF weather

Enter ICAO airport designator
Station Type Date Time Source
LROP METAR 2020/07/09 08:30 UTC NOAA

LROP 090830Z VRB03KT CAVOK 26/14 Q1020 NOSIG


Station Type Date Time Source
LROP Decoded METAR 2020/07/09 08:30 UTC NOAA

Bucuresti Otopeni, Romania (LROP) 44-33N 026-06E 95M
Jul 09, 2020 - 04:30 AM EDT / 2020.07.09 0830 UTC
Wind: Variable at 3 MPH (3 KT):0
Visibility: greater than 7 mile(s):0
Temperature: 78 F (26 C)
Dew Point: 57 F (14 C)
Relative Humidity: 47%
Pressure (altimeter): 30.12 in. Hg (1020 hPa)
ob: LROP 090830Z VRB03KT CAVOK 26/14 Q1020 NOSIG
cycle: 8

Station Type Date Time Source
LROP TAF 2020/07/09 06:33 UTC NOAA

TAF LROP 090500Z 0906/1006 VRB04KT CAVOK

Example: see airport list